sensor_id;sensor_type;location;lat;lon;timestamp;temperature;humidity
71173;DHT22;58875;51.996;4.504;2024-03-22T00:00:53;11.79;82.36
71173;DHT22;58875;51.996;4.504;2024-03-22T00:03:19;11.74;82.37
71173;DHT22;58875;51.996;4.504;2024-03-22T00:06:01;11.71;82.43
71173;DHT22;58875;51.996;4.504;2024-03-22T00:11:03;11.65;82.47
71173;DHT22;58875;51.996;4.504;2024-03-22T00:13:30;11.65;82.47
71173;DHT22;58875;51.996;4.504;2024-03-22T00:15:56;11.62;82.39
71173;DHT22;58875;51.996;4.504;2024-03-22T00:18:30;11.64;82.32
71173;DHT22;58875;51.996;4.504;2024-03-22T00:20:56;11.61;82.41
71173;DHT22;58875;51.996;4.504;2024-03-22T00:23:22;11.65;82.27
71173;DHT22;58875;51.996;4.504;2024-03-22T00:25:48;11.65;82.08
71173;DHT22;58875;51.996;4.504;2024-03-22T00:28:14;11.55;82.33
71173;DHT22;58875;51.996;4.504;2024-03-22T00:30:43;11.57;82.34
71173;DHT22;58875;51.996;4.504;2024-03-22T00:33:09;11.48;82.40
71173;DHT22;58875;51.996;4.504;2024-03-22T00:35:35;11.48;82.52
71173;DHT22;58875;51.996;4.504;2024-03-22T00:38:06;11.47;82.38
71173;DHT22;58875;51.996;4.504;2024-03-22T00:40:33;11.32;82.83
71173;DHT22;58875;51.996;4.504;2024-03-22T00:42:59;11.28;82.83
71173;DHT22;58875;51.996;4.504;2024-03-22T00:45:25;11.24;82.86
71173;DHT22;58875;51.996;4.504;2024-03-22T00:47:51;11.14;83.15
71173;DHT22;58875;51.996;4.504;2024-03-22T00:50:19;11.16;83.19
71173;DHT22;58875;51.996;4.504;2024-03-22T00:52:45;11.14;83.19
71173;DHT22;58875;51.996;4.504;2024-03-22T00:55:14;11.11;83.28
71173;DHT22;58875;51.996;4.504;2024-03-22T00:57:40;11.08;83.50
71173;DHT22;58875;51.996;4.504;2024-03-22T01:00:06;11.17;83.40
71173;DHT22;58875;51.996;4.504;2024-03-22T01:02:33;11.16;83.19
71173;DHT22;58875;51.996;4.504;2024-03-22T01:05:01;11.04;83.33
71173;DHT22;58875;51.996;4.504;2024-03-22T01:07:27;11.03;83.49
71173;DHT22;58875;51.996;4.504;2024-03-22T01:09:58;10.97;83.67
71173;DHT22;58875;51.996;4.504;2024-03-22T01:12:23;10.99;83.60
71173;DHT22;58875;51.996;4.504;2024-03-22T01:24:18;10.83;84.07
71173;DHT22;58875;51.996;4.504;2024-03-22T01:30:48;10.77;84.54
71173;DHT22;58875;51.996;4.504;2024-03-22T01:33:14;10.75;84.61
71173;DHT22;58875;51.996;4.504;2024-03-22T01:35:42;10.84;84.50
71173;DHT22;58875;51.996;4.504;2024-03-22T01:38:10;10.77;84.40
71173;DHT22;58875;51.996;4.504;2024-03-22T01:40:36;10.87;84.46
71173;DHT22;58875;51.996;4.504;2024-03-22T01:43:04;10.89;84.18
71173;DHT22;58875;51.996;4.504;2024-03-22T01:45:35;10.83;84.20
71173;DHT22;58875;51.996;4.504;2024-03-22T01:48:01;10.80;84.41
71173;DHT22;58875;51.996;4.504;2024-03-22T01:50:29;10.86;84.59
71173;DHT22;58875;51.996;4.504;2024-03-22T01:52:55;10.79;84.44
71173;DHT22;58875;51.996;4.504;2024-03-22T01:55:21;10.76;84.62
71173;DHT22;58875;51.996;4.504;2024-03-22T01:57:49;10.80;84.56
71173;DHT22;58875;51.996;4.504;2024-03-22T02:00:17;10.77;84.33
71173;DHT22;58875;51.996;4.504;2024-03-22T02:02:42;10.70;84.73
71173;DHT22;58875;51.996;4.504;2024-03-22T02:05:18;10.70;84.67
71173;DHT22;58875;51.996;4.504;2024-03-22T02:07:50;10.75;84.65
71173;DHT22;58875;51.996;4.504;2024-03-22T02:10:18;10.79;84.47
71173;DHT22;58875;51.996;4.504;2024-03-22T02:12:44;10.75;84.41
71173;DHT22;58875;51.996;4.504;2024-03-22T02:15:17;10.70;84.54
71173;DHT22;58875;51.996;4.504;2024-03-22T02:17:46;10.73;84.59
71173;DHT22;58875;51.996;4.504;2024-03-22T02:20:14;10.70;84.50
71173;DHT22;58875;51.996;4.504;2024-03-22T02:22:42;10.66;84.68
71173;DHT22;58875;51.996;4.504;2024-03-22T02:25:13;10.69;84.53
71173;DHT22;58875;51.996;4.504;2024-03-22T02:27:39;10.76;84.55
71173;DHT22;58875;51.996;4.504;2024-03-22T02:30:07;10.77;84.51
71173;DHT22;58875;51.996;4.504;2024-03-22T02:32:33;10.80;84.33
71173;DHT22;58875;51.996;4.504;2024-03-22T02:34:59;10.86;84.23
71173;DHT22;58875;51.996;4.504;2024-03-22T02:37:24;10.83;84.17
71173;DHT22;58875;51.996;4.504;2024-03-22T02:39:50;10.79;83.94
71173;DHT22;58875;51.996;4.504;2024-03-22T02:42:15;10.75;83.92
71173;DHT22;58875;51.996;4.504;2024-03-22T02:48:04;10.63;83.91
71173;DHT22;58875;51.996;4.504;2024-03-22T02:50:37;10.66;84.09
71173;DHT22;58875;51.996;4.504;2024-03-22T02:53:08;10.75;83.74
71173;DHT22;58875;51.996;4.504;2024-03-22T02:55:41;10.75;83.66
71173;DHT22;58875;51.996;4.504;2024-03-22T02:58:07;10.76;83.68
71173;DHT22;58875;51.996;4.504;2024-03-22T03:00:37;10.72;83.68
71173;DHT22;58875;51.996;4.504;2024-03-22T03:03:05;10.72;83.80
71173;DHT22;58875;51.996;4.504;2024-03-22T03:05:34;10.69;83.71
71173;DHT22;58875;51.996;4.504;2024-03-22T03:08:08;10.69;83.66
71173;DHT22;58875;51.996;4.504;2024-03-22T03:10:39;10.67;83.56
71173;DHT22;58875;51.996;4.504;2024-03-22T03:13:13;10.66;83.58
71173;DHT22;58875;51.996;4.504;2024-03-22T03:15:38;10.66;83.50
71173;DHT22;58875;51.996;4.504;2024-03-22T03:18:04;10.62;83.55
71173;DHT22;58875;51.996;4.504;2024-03-22T03:20:33;10.65;83.60
71173;DHT22;58875;51.996;4.504;2024-03-22T03:23:09;10.65;83.43
71173;DHT22;58875;51.996;4.504;2024-03-22T03:25:43;10.63;83.60
71173;DHT22;58875;51.996;4.504;2024-03-22T03:28:16;10.66;83.50
71173;DHT22;58875;51.996;4.504;2024-03-22T03:30:41;10.69;83.42
71173;DHT22;58875;51.996;4.504;2024-03-22T03:33:10;10.69;83.49
71173;DHT22;58875;51.996;4.504;2024-03-22T03:35:36;10.73;83.30
71173;DHT22;58875;51.996;4.504;2024-03-22T03:38:01;10.73;83.41
71173;DHT22;58875;51.996;4.504;2024-03-22T03:40:30;10.75;83.31
71173;DHT22;58875;51.996;4.504;2024-03-22T03:42:55;10.72;83.38
71173;DHT22;58875;51.996;4.504;2024-03-22T03:45:29;10.69;83.49
71173;DHT22;58875;51.996;4.504;2024-03-22T03:47:58;10.66;83.42
71173;DHT22;58875;51.996;4.504;2024-03-22T03:50:26;10.72;83.54
71173;DHT22;58875;51.996;4.504;2024-03-22T03:52:54;10.73;83.26
71173;DHT22;58875;51.996;4.504;2024-03-22T03:55:22;10.66;83.33
71173;DHT22;58875;51.996;4.504;2024-03-22T03:57:50;10.69;83.50
71173;DHT22;58875;51.996;4.504;2024-03-22T04:00:19;10.70;83.34
71173;DHT22;58875;51.996;4.504;2024-03-22T04:02:52;10.69;83.30
71173;DHT22;58875;51.996;4.504;2024-03-22T04:05:17;10.75;83.48
71173;DHT22;58875;51.996;4.504;2024-03-22T04:07:47;10.69;83.40
71173;DHT22;58875;51.996;4.504;2024-03-22T04:10:15;10.70;83.27
71173;DHT22;58875;51.996;4.504;2024-03-22T04:12:40;10.69;83.35
71173;DHT22;58875;51.996;4.504;2024-03-22T04:15:08;10.67;83.16
71173;DHT22;58875;51.996;4.504;2024-03-22T04:17:43;10.72;83.18
71173;DHT22;58875;51.996;4.504;2024-03-22T04:20:09;10.75;83.10
71173;DHT22;58875;51.996;4.504;2024-03-22T04:22:37;10.81;82.89
71173;DHT22;58875;51.996;4.504;2024-03-22T04:25:09;10.76;82.93
71173;DHT22;58875;51.996;4.504;2024-03-22T04:27:37;10.77;82.95
71173;DHT22;58875;51.996;4.504;2024-03-22T04:30:06;10.73;82.84
71173;DHT22;58875;51.996;4.504;2024-03-22T04:32:32;10.76;82.72
71173;DHT22;58875;51.996;4.504;2024-03-22T04:35:05;10.67;82.85
71173;DHT22;58875;51.996;4.504;2024-03-22T04:37:32;10.63;82.90
71173;DHT22;58875;51.996;4.504;2024-03-22T04:39:58;10.65;82.98
71173;DHT22;58875;51.996;4.504;2024-03-22T04:42:23;10.62;83.21
71173;DHT22;58875;51.996;4.504;2024-03-22T04:44:54;10.62;83.39
71173;DHT22;58875;51.996;4.504;2024-03-22T04:47:29;10.69;83.48
71173;DHT22;58875;51.996;4.504;2024-03-22T04:49:55;10.60;83.63
71173;DHT22;58875;51.996;4.504;2024-03-22T04:52:29;10.59;83.76
71173;DHT22;58875;51.996;4.504;2024-03-22T04:54:54;10.56;83.97
71173;DHT22;58875;51.996;4.504;2024-03-22T04:57:23;10.57;83.82
71173;DHT22;58875;51.996;4.504;2024-03-22T04:59:49;10.59;83.82
71173;DHT22;58875;51.996;4.504;2024-03-22T05:02:15;10.62;83.70
71173;DHT22;58875;51.996;4.504;2024-03-22T05:04:43;10.60;83.69
71173;DHT22;58875;51.996;4.504;2024-03-22T05:07:11;10.62;83.62
71173;DHT22;58875;51.996;4.504;2024-03-22T05:12:15;10.56;83.49
71173;DHT22;58875;51.996;4.504;2024-03-22T05:14:41;10.60;83.39
71173;DHT22;58875;51.996;4.504;2024-03-22T05:17:06;10.53;83.50
71173;DHT22;58875;51.996;4.504;2024-03-22T05:19:32;10.57;83.39
71173;DHT22;58875;51.996;4.504;2024-03-22T05:21:58;10.56;83.34
71173;DHT22;58875;51.996;4.504;2024-03-22T05:24:29;10.55;83.13
71173;DHT22;58875;51.996;4.504;2024-03-22T05:26:58;10.52;83.13
71173;DHT22;58875;51.996;4.504;2024-03-22T05:29:24;10.55;82.87
71173;DHT22;58875;51.996;4.504;2024-03-22T05:31:54;10.52;82.86
71173;DHT22;58875;51.996;4.504;2024-03-22T05:34:22;10.50;82.81
71173;DHT22;58875;51.996;4.504;2024-03-22T05:36:48;10.53;82.89
71173;DHT22;58875;51.996;4.504;2024-03-22T05:39:14;10.56;82.92
71173;DHT22;58875;51.996;4.504;2024-03-22T05:41:42;10.55;82.76
71173;DHT22;58875;51.996;4.504;2024-03-22T05:44:07;10.53;82.91
71173;DHT22;58875;51.996;4.504;2024-03-22T05:46:38;10.52;83.02
71173;DHT22;58875;51.996;4.504;2024-03-22T05:49:04;10.55;82.86
71173;DHT22;58875;51.996;4.504;2024-03-22T05:51:30;10.50;82.96
71173;DHT22;58875;51.996;4.504;2024-03-22T05:53:56;10.49;82.90
71173;DHT22;58875;51.996;4.504;2024-03-22T05:56:22;10.46;82.93
71173;DHT22;58875;51.996;4.504;2024-03-22T06:02:01;10.49;82.82
71173;DHT22;58875;51.996;4.504;2024-03-22T06:04:33;10.50;82.73
71173;DHT22;58875;51.996;4.504;2024-03-22T06:07:07;10.55;82.73
71173;DHT22;58875;51.996;4.504;2024-03-22T06:09:32;10.55;82.39
71173;DHT22;58875;51.996;4.504;2024-03-22T06:12:15;10.56;82.39
71173;DHT22;58875;51.996;4.504;2024-03-22T06:14:42;10.57;82.23
71173;DHT22;58875;51.996;4.504;2024-03-22T06:17:12;10.60;82.06
71173;DHT22;58875;51.996;4.504;2024-03-22T06:19:38;10.62;82.00
71173;DHT22;58875;51.996;4.504;2024-03-22T06:22:04;10.69;81.86
71173;DHT22;58875;51.996;4.504;2024-03-22T06:24:29;10.63;81.75
71173;DHT22;58875;51.996;4.504;2024-03-22T06:26:55;10.66;81.74
71173;DHT22;58875;51.996;4.504;2024-03-22T06:29:21;10.73;81.70
71173;DHT22;58875;51.996;4.504;2024-03-22T06:31:47;10.70;81.59
71173;DHT22;58875;51.996;4.504;2024-03-22T06:34:17;10.70;81.76
71173;DHT22;58875;51.996;4.504;2024-03-22T06:36:43;10.77;81.76
71173;DHT22;58875;51.996;4.504;2024-03-22T06:39:09;10.79;81.73
71173;DHT22;58875;51.996;4.504;2024-03-22T06:41:35;10.79;81.88
71173;DHT22;58875;51.996;4.504;2024-03-22T06:44:05;10.81;81.88
71173;DHT22;58875;51.996;4.504;2024-03-22T06:46:31;10.87;82.10
71173;DHT22;58875;51.996;4.504;2024-03-22T06:48:58;10.89;81.95
71173;DHT22;58875;51.996;4.504;2024-03-22T06:51:30;10.89;81.90
71173;DHT22;58875;51.996;4.504;2024-03-22T06:53:55;10.89;81.62
71173;DHT22;58875;51.996;4.504;2024-03-22T06:56:21;10.83;81.64
71173;DHT22;58875;51.996;4.504;2024-03-22T06:58:46;10.86;81.73
71173;DHT22;58875;51.996;4.504;2024-03-22T07:01:12;10.87;81.82
71173;DHT22;58875;51.996;4.504;2024-03-22T07:03:39;10.84;81.80
71173;DHT22;58875;51.996;4.504;2024-03-22T07:06:05;10.89;81.83
71173;DHT22;58875;51.996;4.504;2024-03-22T07:08:32;10.90;81.76
71173;DHT22;58875;51.996;4.504;2024-03-22T07:11:05;10.84;81.95
71173;DHT22;58875;51.996;4.504;2024-03-22T07:13:34;10.90;82.00
71173;DHT22;58875;51.996;4.504;2024-03-22T07:16:03;10.79;82.09
71173;DHT22;58875;51.996;4.504;2024-03-22T07:18:31;10.87;81.91
71173;DHT22;58875;51.996;4.504;2024-03-22T07:20:59;10.86;81.99
71173;DHT22;58875;51.996;4.504;2024-03-22T07:23:27;10.89;81.93
71173;DHT22;58875;51.996;4.504;2024-03-22T07:25:55;10.77;82.35
71173;DHT22;58875;51.996;4.504;2024-03-22T07:28:21;10.79;82.73
71173;DHT22;58875;51.996;4.504;2024-03-22T07:30:47;10.73;83.01
71173;DHT22;58875;51.996;4.504;2024-03-22T07:33:13;10.72;83.45
71173;DHT22;58875;51.996;4.504;2024-03-22T07:35:41;10.70;83.39
71173;DHT22;58875;51.996;4.504;2024-03-22T07:38:07;10.70;83.59
71173;DHT22;58875;51.996;4.504;2024-03-22T07:40:33;10.69;83.96
71173;DHT22;58875;51.996;4.504;2024-03-22T07:42:58;10.60;84.27
71173;DHT22;58875;51.996;4.504;2024-03-22T07:45:24;10.63;84.61
71173;DHT22;58875;51.996;4.504;2024-03-22T07:47:50;10.67;84.56
71173;DHT22;58875;51.996;4.504;2024-03-22T07:50:15;10.59;84.43
71173;DHT22;58875;51.996;4.504;2024-03-22T07:52:41;10.55;84.65
71173;DHT22;58875;51.996;4.504;2024-03-22T07:55:07;10.53;84.99
71173;DHT22;58875;51.996;4.504;2024-03-22T07:57:33;10.55;85.02
71173;DHT22;58875;51.996;4.504;2024-03-22T07:59:58;10.62;84.83
71173;DHT22;58875;51.996;4.504;2024-03-22T08:02:24;10.63;84.74
71173;DHT22;58875;51.996;4.504;2024-03-22T08:04:49;10.57;84.77
71173;DHT22;58875;51.996;4.504;2024-03-22T08:07:15;10.55;84.88
71173;DHT22;58875;51.996;4.504;2024-03-22T08:09:41;10.56;85.29
71173;DHT22;58875;51.996;4.504;2024-03-22T08:12:07;10.50;85.25
71173;DHT22;58875;51.996;4.504;2024-03-22T08:14:33;10.57;85.47
71173;DHT22;58875;51.996;4.504;2024-03-22T08:16:58;10.53;85.60
71173;DHT22;58875;51.996;4.504;2024-03-22T08:19:24;10.49;85.73
71173;DHT22;58875;51.996;4.504;2024-03-22T08:21:49;10.53;85.89
71173;DHT22;58875;51.996;4.504;2024-03-22T08:24:16;10.52;85.83
71173;DHT22;58875;51.996;4.504;2024-03-22T08:26:42;10.53;85.76
71173;DHT22;58875;51.996;4.504;2024-03-22T08:29:14;10.56;86.01
71173;DHT22;58875;51.996;4.504;2024-03-22T08:31:41;10.55;86.16
71173;DHT22;58875;51.996;4.504;2024-03-22T08:34:08;10.56;86.33
71173;DHT22;58875;51.996;4.504;2024-03-22T08:36:34;10.48;86.48
71173;DHT22;58875;51.996;4.504;2024-03-22T08:38:59;10.49;86.59
71173;DHT22;58875;51.996;4.504;2024-03-22T08:41:25;10.53;86.72
71173;DHT22;58875;51.996;4.504;2024-03-22T08:43:51;10.56;86.62
71173;DHT22;58875;51.996;4.504;2024-03-22T08:46:19;10.53;86.86
71173;DHT22;58875;51.996;4.504;2024-03-22T08:48:47;10.52;86.86
71173;DHT22;58875;51.996;4.504;2024-03-22T08:51:13;10.42;87.34
71173;DHT22;58875;51.996;4.504;2024-03-22T08:53:38;10.39;87.33
71173;DHT22;58875;51.996;4.504;2024-03-22T08:56:07;10.44;87.42
71173;DHT22;58875;51.996;4.504;2024-03-22T08:58:33;10.46;87.52
71173;DHT22;58875;51.996;4.504;2024-03-22T09:00:58;10.50;87.57
71173;DHT22;58875;51.996;4.504;2024-03-22T09:03:24;10.45;87.48
71173;DHT22;58875;51.996;4.504;2024-03-22T09:05:53;10.42;87.55
71173;DHT22;58875;51.996;4.504;2024-03-22T09:08:20;10.36;87.63
71173;DHT22;58875;51.996;4.504;2024-03-22T09:10:47;10.46;87.96
71173;DHT22;58875;51.996;4.504;2024-03-22T09:13:12;10.53;87.79
71173;DHT22;58875;51.996;4.504;2024-03-22T09:15:41;10.48;87.63
71173;DHT22;58875;51.996;4.504;2024-03-22T09:18:13;10.50;87.76
71173;DHT22;58875;51.996;4.504;2024-03-22T09:20:39;10.52;87.81
71173;DHT22;58875;51.996;4.504;2024-03-22T09:23:05;10.52;87.75
71173;DHT22;58875;51.996;4.504;2024-03-22T09:25:33;10.48;87.89
71173;DHT22;58875;51.996;4.504;2024-03-22T09:27:59;10.56;88.05
71173;DHT22;58875;51.996;4.504;2024-03-22T09:30:26;10.57;87.80
71173;DHT22;58875;51.996;4.504;2024-03-22T09:32:52;10.59;87.70
71173;DHT22;58875;51.996;4.504;2024-03-22T09:35:17;10.45;87.50
71173;DHT22;58875;51.996;4.504;2024-03-22T09:37:43;10.41;87.99
71173;DHT22;58875;51.996;4.504;2024-03-22T09:40:09;10.39;88.09
71173;DHT22;58875;51.996;4.504;2024-03-22T09:42:38;10.46;88.15
71173;DHT22;58875;51.996;4.504;2024-03-22T09:45:11;10.44;88.22
71173;DHT22;58875;51.996;4.504;2024-03-22T09:47:37;10.52;88.26
71173;DHT22;58875;51.996;4.504;2024-03-22T09:50:06;10.55;88.18
71173;DHT22;58875;51.996;4.504;2024-03-22T09:52:33;10.57;88.18
71173;DHT22;58875;51.996;4.504;2024-03-22T09:55:01;10.53;88.22
71173;DHT22;58875;51.996;4.504;2024-03-22T09:57:31;10.48;88.54
71173;DHT22;58875;51.996;4.504;2024-03-22T10:00:02;10.57;88.39
71173;DHT22;58875;51.996;4.504;2024-03-22T10:02:28;10.57;88.15
71173;DHT22;58875;51.996;4.504;2024-03-22T10:04:56;10.57;88.45
71173;DHT22;58875;51.996;4.504;2024-03-22T10:07:25;10.70;88.46
71173;DHT22;58875;51.996;4.504;2024-03-22T10:09:58;10.66;88.10
71173;DHT22;58875;51.996;4.504;2024-03-22T10:12:24;10.67;88.36
71173;DHT22;58875;51.996;4.504;2024-03-22T10:14:53;10.60;88.38
71173;DHT22;58875;51.996;4.504;2024-03-22T10:17:19;10.49;88.56
71173;DHT22;58875;51.996;4.504;2024-03-22T10:19:44;10.60;88.71
71173;DHT22;58875;51.996;4.504;2024-03-22T10:22:10;10.55;88.64
71173;DHT22;58875;51.996;4.504;2024-03-22T10:24:35;10.53;88.75
71173;DHT22;58875;51.996;4.504;2024-03-22T10:27:04;10.55;88.79
71173;DHT22;58875;51.996;4.504;2024-03-22T10:29:30;10.62;88.77
71173;DHT22;58875;51.996;4.504;2024-03-22T10:31:56;10.59;88.83
71173;DHT22;58875;51.996;4.504;2024-03-22T10:34:22;10.62;88.87
71173;DHT22;58875;51.996;4.504;2024-03-22T10:36:48;10.65;88.63
71173;DHT22;58875;51.996;4.504;2024-03-22T10:39:17;10.53;88.50
71173;DHT22;58875;51.996;4.504;2024-03-22T10:41:50;10.53;88.94
71173;DHT22;58875;51.996;4.504;2024-03-22T10:44:17;10.67;89.12
71173;DHT22;58875;51.996;4.504;2024-03-22T10:46:47;10.80;88.85
71173;DHT22;58875;51.996;4.504;2024-03-22T10:49:18;10.80;88.65
71173;DHT22;58875;51.996;4.504;2024-03-22T10:51:49;10.73;88.52
71173;DHT22;58875;51.996;4.504;2024-03-22T10:54:24;10.63;88.60
71173;DHT22;58875;51.996;4.504;2024-03-22T10:56:51;10.65;88.84
71173;DHT22;58875;51.996;4.504;2024-03-22T10:59:22;10.57;89.06
71173;DHT22;58875;51.996;4.504;2024-03-22T11:01:50;10.53;89.11
71173;DHT22;58875;51.996;4.504;2024-03-22T11:04:22;10.63;89.30
71173;DHT22;58875;51.996;4.504;2024-03-22T11:06:56;10.75;89.22
71173;DHT22;58875;51.996;4.504;2024-03-22T11:09:25;10.70;88.79
71173;DHT22;58875;51.996;4.504;2024-03-22T11:11:55;10.73;88.92
71173;DHT22;58875;51.996;4.504;2024-03-22T11:14:22;10.75;88.78
71173;DHT22;58875;51.996;4.504;2024-03-22T11:16:51;10.77;88.49
71173;DHT22;58875;51.996;4.504;2024-03-22T11:19:19;10.87;88.66
71173;DHT22;58875;51.996;4.504;2024-03-22T11:21:45;11.07;88.35
71173;DHT22;58875;51.996;4.504;2024-03-22T11:24:10;11.13;88.09
71173;DHT22;58875;51.996;4.504;2024-03-22T11:26:36;11.20;88.13
71173;DHT22;58875;51.996;4.504;2024-03-22T11:29:03;11.24;87.57
71173;DHT22;58875;51.996;4.504;2024-03-22T11:31:28;11.28;87.39
71173;DHT22;58875;51.996;4.504;2024-03-22T11:33:55;11.30;86.68
71173;DHT22;58875;51.996;4.504;2024-03-22T11:36:22;11.26;86.21
71173;DHT22;58875;51.996;4.504;2024-03-22T11:38:48;11.27;86.26
71173;DHT22;58875;51.996;4.504;2024-03-22T11:41:29;11.17;86.23
71173;DHT22;58875;51.996;4.504;2024-03-22T11:43:59;11.26;86.17
71173;DHT22;58875;51.996;4.504;2024-03-22T11:46:28;11.48;86.18
71173;DHT22;58875;51.996;4.504;2024-03-22T11:48:55;11.64;85.55
71173;DHT22;58875;51.996;4.504;2024-03-22T11:51:23;11.83;85.16
71173;DHT22;58875;51.996;4.504;2024-03-22T11:53:53;11.83;84.69
71173;DHT22;58875;51.996;4.504;2024-03-22T11:56:21;11.88;84.69
71173;DHT22;58875;51.996;4.504;2024-03-22T11:58:48;11.89;83.82
71173;DHT22;58875;51.996;4.504;2024-03-22T12:01:15;11.95;83.54
71173;DHT22;58875;51.996;4.504;2024-03-22T12:03:43;11.82;83.58
71173;DHT22;58875;51.996;4.504;2024-03-22T12:06:10;11.89;83.53
71173;DHT22;58875;51.996;4.504;2024-03-22T12:08:37;12.03;83.10
71173;DHT22;58875;51.996;4.504;2024-03-22T12:11:04;12.27;82.60
71173;DHT22;58875;51.996;4.504;2024-03-22T12:13:29;12.30;81.48
71173;DHT22;58875;51.996;4.504;2024-03-22T12:15:57;12.26;81.15
71173;DHT22;58875;51.996;4.504;2024-03-22T12:18:23;12.16;81.25
71173;DHT22;58875;51.996;4.504;2024-03-22T12:20:49;11.98;81.98
71173;DHT22;58875;51.996;4.504;2024-03-22T12:23:20;11.95;83.11
71173;DHT22;58875;51.996;4.504;2024-03-22T12:25:46;11.83;83.15
71173;DHT22;58875;51.996;4.504;2024-03-22T12:28:12;11.79;84.02
71173;DHT22;58875;51.996;4.504;2024-03-22T12:30:37;11.68;84.08
71173;DHT22;58875;51.996;4.504;2024-03-22T12:33:03;11.67;84.32
71173;DHT22;58875;51.996;4.504;2024-03-22T12:35:28;11.48;84.02
71173;DHT22;58875;51.996;4.504;2024-03-22T12:37:58;11.55;85.15
71173;DHT22;58875;51.996;4.504;2024-03-22T12:40:23;11.52;84.49
71173;DHT22;58875;51.996;4.504;2024-03-22T12:42:49;11.61;84.88
71173;DHT22;58875;51.996;4.504;2024-03-22T12:45:14;11.61;84.50
71173;DHT22;58875;51.996;4.504;2024-03-22T12:47:40;11.58;84.21
71173;DHT22;58875;51.996;4.504;2024-03-22T12:50:06;11.48;84.03
71173;DHT22;58875;51.996;4.504;2024-03-22T12:52:34;11.41;84.70
71173;DHT22;58875;51.996;4.504;2024-03-22T12:55:00;11.34;84.88
71173;DHT22;58875;51.996;4.504;2024-03-22T12:57:26;11.42;85.56
71173;DHT22;58875;51.996;4.504;2024-03-22T12:59:51;11.54;85.52
71173;DHT22;58875;51.996;4.504;2024-03-22T13:02:17;11.65;85.27
71173;DHT22;58875;51.996;4.504;2024-03-22T13:04:42;11.71;84.97
71173;DHT22;58875;51.996;4.504;2024-03-22T13:07:08;11.83;84.80
71173;DHT22;58875;51.996;4.504;2024-03-22T13:09:34;11.71;84.17
71173;DHT22;58875;51.996;4.504;2024-03-22T13:11:59;11.50;83.73
71173;DHT22;58875;51.996;4.504;2024-03-22T13:14:28;11.52;84.22
71173;DHT22;58875;51.996;4.504;2024-03-22T13:17:10;11.62;84.23
71173;DHT22;58875;51.996;4.504;2024-03-22T13:19:38;11.61;83.37
71173;DHT22;58875;51.996;4.504;2024-03-22T13:22:04;11.62;83.34
71173;DHT22;58875;51.996;4.504;2024-03-22T13:24:30;11.61;83.11
71173;DHT22;58875;51.996;4.504;2024-03-22T13:26:55;11.57;83.02
71173;DHT22;58875;51.996;4.504;2024-03-22T13:29:21;11.54;82.87
71173;DHT22;58875;51.996;4.504;2024-03-22T13:31:47;11.61;82.81
71173;DHT22;58875;51.996;4.504;2024-03-22T13:34:12;11.65;82.58
71173;DHT22;58875;51.996;4.504;2024-03-22T13:36:38;11.58;82.15
71173;DHT22;58875;51.996;4.504;2024-03-22T13:39:04;11.67;82.35
71173;DHT22;58875;51.996;4.504;2024-03-22T13:41:29;11.72;82.20
71173;DHT22;58875;51.996;4.504;2024-03-22T13:43:55;11.82;82.19
71173;DHT22;58875;51.996;4.504;2024-03-22T13:46:21;11.96;82.39
71173;DHT22;58875;51.996;4.504;2024-03-22T13:48:46;12.03;82.06
71173;DHT22;58875;51.996;4.504;2024-03-22T13:51:13;12.00;81.19
71173;DHT22;58875;51.996;4.504;2024-03-22T13:53:38;12.10;81.38
71173;DHT22;58875;51.996;4.504;2024-03-22T13:56:04;12.08;81.16
71173;DHT22;58875;51.996;4.504;2024-03-22T13:58:29;12.08;81.12
71173;DHT22;58875;51.996;4.504;2024-03-22T14:00:55;12.02;80.71
71173;DHT22;58875;51.996;4.504;2024-03-22T14:03:21;12.00;80.58
71173;DHT22;58875;51.996;4.504;2024-03-22T14:05:46;12.03;80.38
71173;DHT22;58875;51.996;4.504;2024-03-22T14:08:12;11.99;79.91
71173;DHT22;58875;51.996;4.504;2024-03-22T14:10:37;12.03;79.94
71173;DHT22;58875;51.996;4.504;2024-03-22T14:13:03;11.92;79.51
71173;DHT22;58875;51.996;4.504;2024-03-22T14:15:29;12.03;79.66
71173;DHT22;58875;51.996;4.504;2024-03-22T14:17:57;12.10;80.09
71173;DHT22;58875;51.996;4.504;2024-03-22T14:20:24;12.17;80.07
71173;DHT22;58875;51.996;4.504;2024-03-22T14:22:50;12.13;79.22
71173;DHT22;58875;51.996;4.504;2024-03-22T14:25:16;12.03;79.32
71173;DHT22;58875;51.996;4.504;2024-03-22T14:27:42;11.99;79.16
71173;DHT22;58875;51.996;4.504;2024-03-22T14:30:11;11.92;78.84
71173;DHT22;58875;51.996;4.504;2024-03-22T14:32:39;11.88;79.47
71173;DHT22;58875;51.996;4.504;2024-03-22T14:35:06;11.96;79.65
71173;DHT22;58875;51.996;4.504;2024-03-22T14:37:32;12.08;79.69
71173;DHT22;58875;51.996;4.504;2024-03-22T14:39:57;12.10;79.38
71173;DHT22;58875;51.996;4.504;2024-03-22T14:42:24;12.09;79.13
71173;DHT22;58875;51.996;4.504;2024-03-22T14:44:49;12.03;78.54
71173;DHT22;58875;51.996;4.504;2024-03-22T14:47:15;11.89;78.66
71173;DHT22;58875;51.996;4.504;2024-03-22T14:49:41;11.79;77.98
71173;DHT22;58875;51.996;4.504;2024-03-22T14:52:08;11.68;77.78
71173;DHT22;58875;51.996;4.504;2024-03-22T14:54:33;11.62;78.18
71173;DHT22;58875;51.996;4.504;2024-03-22T14:56:59;11.67;78.04
71173;DHT22;58875;51.996;4.504;2024-03-22T14:59:28;11.55;78.70
71173;DHT22;58875;51.996;4.504;2024-03-22T15:01:54;11.55;78.63
71173;DHT22;58875;51.996;4.504;2024-03-22T15:04:20;11.48;79.07
71173;DHT22;58875;51.996;4.504;2024-03-22T15:06:46;11.41;79.42
71173;DHT22;58875;51.996;4.504;2024-03-22T15:09:16;11.37;79.69
71173;DHT22;58875;51.996;4.504;2024-03-22T15:11:43;11.24;79.92
71173;DHT22;58875;51.996;4.504;2024-03-22T15:14:09;11.21;79.91
71173;DHT22;58875;51.996;4.504;2024-03-22T15:16:34;11.06;80.35
71173;DHT22;58875;51.996;4.504;2024-03-22T15:19:01;11.00;80.72
71173;DHT22;58875;51.996;4.504;2024-03-22T15:21:28;10.97;80.22
71173;DHT22;58875;51.996;4.504;2024-03-22T15:23:53;10.89;79.91
71173;DHT22;58875;51.996;4.504;2024-03-22T15:26:19;10.86;80.02
71173;DHT22;58875;51.996;4.504;2024-03-22T15:28:47;10.86;80.06
71173;DHT22;58875;51.996;4.504;2024-03-22T15:31:13;10.69;79.75
71173;DHT22;58875;51.996;4.504;2024-03-22T15:33:39;10.56;80.00
71173;DHT22;58875;51.996;4.504;2024-03-22T15:36:05;10.48;79.72
71173;DHT22;58875;51.996;4.504;2024-03-22T15:38:30;10.44;79.54
71173;DHT22;58875;51.996;4.504;2024-03-22T15:40:55;10.41;79.39
71173;DHT22;58875;51.996;4.504;2024-03-22T15:43:21;10.39;78.65
71173;DHT22;58875;51.996;4.504;2024-03-22T15:45:46;10.45;79.78
71173;DHT22;58875;51.996;4.504;2024-03-22T15:48:13;10.49;79.13
71173;DHT22;58875;51.996;4.504;2024-03-22T15:50:46;10.50;78.96
71173;DHT22;58875;51.996;4.504;2024-03-22T15:53:12;10.52;79.11
71173;DHT22;58875;51.996;4.504;2024-03-22T15:55:38;10.59;79.07